sensor_id;sensor_type;location;lat;lon;timestamp;P1;durP1;ratioP1;P2;durP2;ratioP2
11598;SDS011;5855;48.840;9.188;2023-02-01T00:02:04;3.28;;;2.50;;
11598;SDS011;5855;48.840;9.188;2023-02-01T00:04:31;3.63;;;2.63;;
11598;SDS011;5855;48.840;9.188;2023-02-01T00:06:58;4.10;;;2.70;;
11598;SDS011;5855;48.840;9.188;2023-02-01T00:09:26;3.15;;;2.63;;
11598;SDS011;5855;48.840;9.188;2023-02-01T00:11:54;2.83;;;2.50;;
11598;SDS011;5855;48.840;9.188;2023-02-01T00:14:24;2.50;;;2.30;;
11598;SDS011;5855;48.840;9.188;2023-02-01T00:16:51;2.75;;;2.50;;
11598;SDS011;5855;48.840;9.188;2023-02-01T00:19:18;2.40;;;2.20;;
11598;SDS011;5855;48.840;9.188;2023-02-01T00:21:44;2.03;;;1.83;;
11598;SDS011;5855;48.840;9.188;2023-02-01T00:24:11;2.80;;;2.10;;
11598;SDS011;5855;48.840;9.188;2023-02-01T00:26:39;1.80;;;1.70;;
11598;SDS011;5855;48.840;9.188;2023-02-01T00:29:09;2.10;;;1.90;;
11598;SDS011;5855;48.840;9.188;2023-02-01T00:31:38;2.33;;;2.10;;
11598;SDS011;5855;48.840;9.188;2023-02-01T00:34:05;2.90;;;1.90;;
11598;SDS011;5855;48.840;9.188;2023-02-01T00:36:33;2.83;;;1.70;;
11598;SDS011;5855;48.840;9.188;2023-02-01T00:39:00;2.85;;;1.60;;
11598;SDS011;5855;48.840;9.188;2023-02-01T00:41:27;2.40;;;1.90;;
11598;SDS011;5855;48.840;9.188;2023-02-01T00:43:54;1.50;;;1.40;;
11598;SDS011;5855;48.840;9.188;2023-02-01T00:46:22;1.60;;;1.50;;
11598;SDS011;5855;48.840;9.188;2023-02-01T00:48:50;1.60;;;1.50;;
11598;SDS011;5855;48.840;9.188;2023-02-01T00:51:18;1.70;;;1.60;;
11598;SDS011;5855;48.840;9.188;2023-02-01T00:53:46;1.85;;;1.70;;
11598;SDS011;5855;48.840;9.188;2023-02-01T00:56:13;2.25;;;1.92;;
11598;SDS011;5855;48.840;9.188;2023-02-01T00:58:40;1.73;;;1.63;;
11598;SDS011;5855;48.840;9.188;2023-02-01T01:01:07;1.70;;;1.60;;
11598;SDS011;5855;48.840;9.188;2023-02-01T01:03:37;1.60;;;1.50;;
11598;SDS011;5855;48.840;9.188;2023-02-01T01:06:06;1.70;;;1.60;;
11598;SDS011;5855;48.840;9.188;2023-02-01T01:08:33;2.60;;;1.65;;
11598;SDS011;5855;48.840;9.188;2023-02-01T01:11:03;1.60;;;1.50;;
11598;SDS011;5855;48.840;9.188;2023-02-01T01:13:31;1.60;;;1.50;;
11598;SDS011;5855;48.840;9.188;2023-02-01T01:15:59;1.83;;;1.70;;
11598;SDS011;5855;48.840;9.188;2023-02-01T01:18:27;2.40;;;1.90;;
11598;SDS011;5855;48.840;9.188;2023-02-01T01:20:56;1.92;;;1.80;;
11598;SDS011;5855;48.840;9.188;2023-02-01T01:23:23;1.92;;;1.70;;
11598;SDS011;5855;48.840;9.188;2023-02-01T01:25:51;1.70;;;1.60;;
11598;SDS011;5855;48.840;9.188;2023-02-01T01:28:18;2.38;;;1.75;;
11598;SDS011;5855;48.840;9.188;2023-02-01T01:30:45;1.85;;;1.70;;
11598;SDS011;5855;48.840;9.188;2023-02-01T01:33:12;1.80;;;1.70;;
11598;SDS011;5855;48.840;9.188;2023-02-01T01:35:38;2.17;;;1.98;;
11598;SDS011;5855;48.840;9.188;2023-02-01T01:38:08;1.60;;;1.50;;
11598;SDS011;5855;48.840;9.188;2023-02-01T01:40:36;1.60;;;1.50;;
11598;SDS011;5855;48.840;9.188;2023-02-01T01:43:05;1.45;;;1.35;;
11598;SDS011;5855;48.840;9.188;2023-02-01T01:45:39;2.05;;;1.50;;
11598;SDS011;5855;48.840;9.188;2023-02-01T01:48:07;1.60;;;1.50;;
11598;SDS011;5855;48.840;9.188;2023-02-01T01:50:38;1.58;;;1.48;;
11598;SDS011;5855;48.840;9.188;2023-02-01T01:53:08;1.42;;;1.33;;
11598;SDS011;5855;48.840;9.188;2023-02-01T01:55:38;1.40;;;1.30;;
11598;SDS011;5855;48.840;9.188;2023-02-01T01:58:09;1.85;;;1.60;;
11598;SDS011;5855;48.840;9.188;2023-02-01T02:00:39;1.60;;;1.50;;
11598;SDS011;5855;48.840;9.188;2023-02-01T02:03:07;1.45;;;1.35;;
11598;SDS011;5855;48.840;9.188;2023-02-01T02:05:39;1.48;;;1.38;;
11598;SDS011;5855;48.840;9.188;2023-02-01T02:08:08;1.48;;;1.38;;
11598;SDS011;5855;48.840;9.188;2023-02-01T02:10:36;1.63;;;1.45;;
11598;SDS011;5855;48.840;9.188;2023-02-01T02:13:21;2.42;;;1.40;;
11598;SDS011;5855;48.840;9.188;2023-02-01T02:15:49;1.48;;;1.38;;
11598;SDS011;5855;48.840;9.188;2023-02-01T02:18:26;1.70;;;1.60;;
11598;SDS011;5855;48.840;9.188;2023-02-01T02:21:03;1.95;;;1.30;;
11598;SDS011;5855;48.840;9.188;2023-02-01T02:26:40;1.77;;;1.40;;
11598;SDS011;5855;48.840;9.188;2023-02-01T02:29:36;1.35;;;1.10;;
11598;SDS011;5855;48.840;9.188;2023-02-01T02:32:42;1.40;;;1.30;;
11598;SDS011;5855;48.840;9.188;2023-02-01T02:35:34;1.10;;;1.05;;
11598;SDS011;5855;48.840;9.188;2023-02-01T02:38:11;1.40;;;1.30;;
11598;SDS011;5855;48.840;9.188;2023-02-01T02:40:45;1.50;;;1.40;;
11598;SDS011;5855;48.840;9.188;2023-02-01T02:43:17;1.42;;;1.30;;
11598;SDS011;5855;48.840;9.188;2023-02-01T02:46:05;1.30;;;1.20;;
11598;SDS011;5855;48.840;9.188;2023-02-01T02:48:55;2.60;;;1.70;;
11598;SDS011;5855;48.840;9.188;2023-02-01T02:51:30;1.65;;;1.55;;
11598;SDS011;5855;48.840;9.188;2023-02-01T02:54:20;1.60;;;1.50;;
11598;SDS011;5855;48.840;9.188;2023-02-01T02:57:17;2.47;;;1.58;;
11598;SDS011;5855;48.840;9.188;2023-02-01T03:00:04;1.88;;;1.70;;
11598;SDS011;5855;48.840;9.188;2023-02-01T03:02:52;2.33;;;1.67;;
11598;SDS011;5855;48.840;9.188;2023-02-01T03:05:39;1.70;;;1.60;;
11598;SDS011;5855;48.840;9.188;2023-02-01T03:08:11;2.08;;;1.80;;
11598;SDS011;5855;48.840;9.188;2023-02-01T03:10:44;1.90;;;1.80;;
11598;SDS011;5855;48.840;9.188;2023-02-01T03:13:18;2.08;;;1.88;;
11598;SDS011;5855;48.840;9.188;2023-02-01T03:15:51;2.92;;;1.90;;
11598;SDS011;5855;48.840;9.188;2023-02-01T03:18:25;2.70;;;1.70;;
11598;SDS011;5855;48.840;9.188;2023-02-01T03:20:56;2.50;;;2.00;;
11598;SDS011;5855;48.840;9.188;2023-02-01T03:23:31;1.83;;;1.70;;
11598;SDS011;5855;48.840;9.188;2023-02-01T03:25:59;1.88;;;1.60;;
11598;SDS011;5855;48.840;9.188;2023-02-01T03:28:28;2.25;;;1.90;;
11598;SDS011;5855;48.840;9.188;2023-02-01T03:30:59;3.30;;;2.10;;
11598;SDS011;5855;48.840;9.188;2023-02-01T03:33:27;2.20;;;1.88;;
11598;SDS011;5855;48.840;9.188;2023-02-01T03:35:59;1.63;;;1.52;;
11598;SDS011;5855;48.840;9.188;2023-02-01T03:38:34;2.30;;;1.88;;
11598;SDS011;5855;48.840;9.188;2023-02-01T03:41:08;1.73;;;1.60;;
11598;SDS011;5855;48.840;9.188;2023-02-01T03:43:42;1.98;;;1.70;;
11598;SDS011;5855;48.840;9.188;2023-02-01T03:46:17;2.13;;;1.80;;
11598;SDS011;5855;48.840;9.188;2023-02-01T03:48:49;2.10;;;1.90;;
11598;SDS011;5855;48.840;9.188;2023-02-01T03:51:17;1.88;;;1.63;;
11598;SDS011;5855;48.840;9.188;2023-02-01T03:53:48;1.90;;;1.80;;
11598;SDS011;5855;48.840;9.188;2023-02-01T03:56:16;2.88;;;1.88;;
11598;SDS011;5855;48.840;9.188;2023-02-01T03:58:47;1.80;;;1.70;;
11598;SDS011;5855;48.840;9.188;2023-02-01T04:01:24;1.45;;;1.35;;
11598;SDS011;5855;48.840;9.188;2023-02-01T04:03:51;1.80;;;1.70;;
11598;SDS011;5855;48.840;9.188;2023-02-01T04:06:18;1.60;;;1.50;;
11598;SDS011;5855;48.840;9.188;2023-02-01T04:08:45;1.85;;;1.55;;
11598;SDS011;5855;48.840;9.188;2023-02-01T04:11:13;1.42;;;1.33;;
11598;SDS011;5855;48.840;9.188;2023-02-01T04:13:40;1.30;;;1.20;;
11598;SDS011;5855;48.840;9.188;2023-02-01T04:16:07;1.60;;;1.50;;
11598;SDS011;5855;48.840;9.188;2023-02-01T04:18:34;1.58;;;1.48;;
11598;SDS011;5855;48.840;9.188;2023-02-01T04:21:01;1.67;;;1.48;;
11598;SDS011;5855;48.840;9.188;2023-02-01T04:23:28;1.48;;;1.38;;
11598;SDS011;5855;48.840;9.188;2023-02-01T04:25:58;1.30;;;1.20;;
11598;SDS011;5855;48.840;9.188;2023-02-01T04:28:27;2.22;;;1.52;;
11598;SDS011;5855;48.840;9.188;2023-02-01T04:30:54;1.60;;;1.50;;
11598;SDS011;5855;48.840;9.188;2023-02-01T04:33:21;1.35;;;1.25;;
11598;SDS011;5855;48.840;9.188;2023-02-01T04:35:48;1.50;;;1.40;;
11598;SDS011;5855;48.840;9.188;2023-02-01T04:38:15;1.67;;;1.58;;
11598;SDS011;5855;48.840;9.188;2023-02-01T04:40:41;1.70;;;1.60;;
11598;SDS011;5855;48.840;9.188;2023-02-01T04:43:08;1.75;;;1.60;;
11598;SDS011;5855;48.840;9.188;2023-02-01T04:45:36;1.83;;;1.58;;
11598;SDS011;5855;48.840;9.188;2023-02-01T04:48:04;1.30;;;1.20;;
11598;SDS011;5855;48.840;9.188;2023-02-01T04:50:31;1.63;;;1.30;;
11598;SDS011;5855;48.840;9.188;2023-02-01T04:52:57;1.40;;;1.20;;
11598;SDS011;5855;48.840;9.188;2023-02-01T04:55:24;1.27;;;1.17;;
11598;SDS011;5855;48.840;9.188;2023-02-01T04:57:51;1.40;;;1.30;;
11598;SDS011;5855;48.840;9.188;2023-02-01T05:00:18;1.50;;;1.40;;
11598;SDS011;5855;48.840;9.188;2023-02-01T05:02:47;1.08;;;1.08;;
11598;SDS011;5855;48.840;9.188;2023-02-01T05:05:13;1.45;;;1.17;;
11598;SDS011;5855;48.840;9.188;2023-02-01T05:07:40;1.38;;;1.27;;
11598;SDS011;5855;48.840;9.188;2023-02-01T05:10:09;1.58;;;1.40;;
11598;SDS011;5855;48.840;9.188;2023-02-01T05:12:36;1.40;;;1.27;;
11598;SDS011;5855;48.840;9.188;2023-02-01T05:15:21;1.42;;;1.33;;
11598;SDS011;5855;48.840;9.188;2023-02-01T05:17:49;1.38;;;1.25;;
11598;SDS011;5855;48.840;9.188;2023-02-01T05:20:16;1.45;;;1.35;;
11598;SDS011;5855;48.840;9.188;2023-02-01T05:22:43;1.83;;;1.40;;
11598;SDS011;5855;48.840;9.188;2023-02-01T05:25:09;1.50;;;1.20;;
11598;SDS011;5855;48.840;9.188;2023-02-01T05:27:36;1.40;;;1.30;;
11598;SDS011;5855;48.840;9.188;2023-02-01T05:30:04;2.03;;;1.30;;
11598;SDS011;5855;48.840;9.188;2023-02-01T05:32:32;1.77;;;1.40;;
11598;SDS011;5855;48.840;9.188;2023-02-01T05:35:00;1.70;;;1.50;;
11598;SDS011;5855;48.840;9.188;2023-02-01T05:37:27;1.98;;;1.40;;
11598;SDS011;5855;48.840;9.188;2023-02-01T05:39:54;2.22;;;1.63;;
11598;SDS011;5855;48.840;9.188;2023-02-01T05:42:21;1.70;;;1.50;;
11598;SDS011;5855;48.840;9.188;2023-02-01T05:44:48;1.40;;;1.30;;
11598;SDS011;5855;48.840;9.188;2023-02-01T05:47:14;1.25;;;1.15;;
11598;SDS011;5855;48.840;9.188;2023-02-01T05:49:41;2.67;;;1.33;;
11598;SDS011;5855;48.840;9.188;2023-02-01T05:52:09;2.40;;;1.40;;
11598;SDS011;5855;48.840;9.188;2023-02-01T05:54:36;1.60;;;1.20;;
11598;SDS011;5855;48.840;9.188;2023-02-01T05:57:03;2.75;;;1.30;;
11598;SDS011;5855;48.840;9.188;2023-02-01T05:59:30;1.30;;;1.10;;
11598;SDS011;5855;48.840;9.188;2023-02-01T06:01:57;1.17;;;1.17;;
11598;SDS011;5855;48.840;9.188;2023-02-01T06:04:24;1.42;;;1.20;;
11598;SDS011;5855;48.840;9.188;2023-02-01T06:06:51;1.92;;;1.17;;
11598;SDS011;5855;48.840;9.188;2023-02-01T06:09:19;1.95;;;1.20;;
11598;SDS011;5855;48.840;9.188;2023-02-01T06:11:46;1.58;;;1.40;;
11598;SDS011;5855;48.840;9.188;2023-02-01T06:14:13;1.52;;;1.30;;
11598;SDS011;5855;48.840;9.188;2023-02-01T06:16:39;2.72;;;1.63;;
11598;SDS011;5855;48.840;9.188;2023-02-01T06:19:06;1.92;;;1.40;;
11598;SDS011;5855;48.840;9.188;2023-02-01T06:21:34;2.33;;;1.40;;
11598;SDS011;5855;48.840;9.188;2023-02-01T06:24:01;1.92;;;1.50;;
11598;SDS011;5855;48.840;9.188;2023-02-01T06:26:30;3.47;;;1.50;;
11598;SDS011;5855;48.840;9.188;2023-02-01T06:28:58;2.63;;;1.50;;
11598;SDS011;5855;48.840;9.188;2023-02-01T06:31:25;2.78;;;1.30;;
11598;SDS011;5855;48.840;9.188;2023-02-01T06:33:52;1.48;;;1.38;;
11598;SDS011;5855;48.840;9.188;2023-02-01T06:36:19;1.60;;;1.45;;
11598;SDS011;5855;48.840;9.188;2023-02-01T06:38:46;2.75;;;1.70;;
11598;SDS011;5855;48.840;9.188;2023-02-01T06:41:13;2.72;;;1.73;;
11598;SDS011;5855;48.840;9.188;2023-02-01T06:43:42;2.00;;;1.70;;
11598;SDS011;5855;48.840;9.188;2023-02-01T06:46:11;5.13;;;1.70;;
11598;SDS011;5855;48.840;9.188;2023-02-01T06:48:39;2.22;;;1.70;;
11598;SDS011;5855;48.840;9.188;2023-02-01T06:51:05;2.90;;;2.10;;
11598;SDS011;5855;48.840;9.188;2023-02-01T06:53:41;2.92;;;1.90;;
11598;SDS011;5855;48.840;9.188;2023-02-01T06:56:08;2.53;;;2.22;;
11598;SDS011;5855;48.840;9.188;2023-02-01T06:58:35;3.88;;;2.17;;
11598;SDS011;5855;48.840;9.188;2023-02-01T07:01:05;3.75;;;2.28;;
11598;SDS011;5855;48.840;9.188;2023-02-01T07:03:33;3.45;;;2.00;;
11598;SDS011;5855;48.840;9.188;2023-02-01T07:06:00;5.53;;;2.28;;
11598;SDS011;5855;48.840;9.188;2023-02-01T07:08:29;4.38;;;2.40;;
11598;SDS011;5855;48.840;9.188;2023-02-01T07:11:00;6.45;;;2.78;;
11598;SDS011;5855;48.840;9.188;2023-02-01T07:13:28;3.30;;;2.15;;
11598;SDS011;5855;48.840;9.188;2023-02-01T07:15:57;4.72;;;2.15;;
11598;SDS011;5855;48.840;9.188;2023-02-01T07:18:26;3.65;;;2.30;;
11598;SDS011;5855;48.840;9.188;2023-02-01T07:20:53;4.65;;;2.50;;
11598;SDS011;5855;48.840;9.188;2023-02-01T07:23:20;3.80;;;2.10;;
11598;SDS011;5855;48.840;9.188;2023-02-01T07:25:47;7.03;;;2.83;;
11598;SDS011;5855;48.840;9.188;2023-02-01T07:28:14;5.32;;;2.60;;
11598;SDS011;5855;48.840;9.188;2023-02-01T07:30:41;5.05;;;2.65;;
11598;SDS011;5855;48.840;9.188;2023-02-01T07:33:07;6.82;;;3.00;;
11598;SDS011;5855;48.840;9.188;2023-02-01T07:35:36;4.18;;;2.60;;
11598;SDS011;5855;48.840;9.188;2023-02-01T07:38:02;8.63;;;2.20;;
11598;SDS011;5855;48.840;9.188;2023-02-01T07:40:29;4.60;;;2.30;;
11598;SDS011;5855;48.840;9.188;2023-02-01T07:42:56;6.82;;;2.70;;
11598;SDS011;5855;48.840;9.188;2023-02-01T07:45:23;5.65;;;2.97;;
11598;SDS011;5855;48.840;9.188;2023-02-01T07:47:51;5.72;;;3.03;;
11598;SDS011;5855;48.840;9.188;2023-02-01T07:50:18;6.90;;;2.70;;
11598;SDS011;5855;48.840;9.188;2023-02-01T07:52:46;5.93;;;2.58;;
11598;SDS011;5855;48.840;9.188;2023-02-01T07:55:13;5.03;;;2.88;;
11598;SDS011;5855;48.840;9.188;2023-02-01T07:57:40;6.55;;;2.70;;
11598;SDS011;5855;48.840;9.188;2023-02-01T08:00:08;8.25;;;3.22;;
11598;SDS011;5855;48.840;9.188;2023-02-01T08:02:53;4.25;;;2.63;;
11598;SDS011;5855;48.840;9.188;2023-02-01T08:05:20;7.05;;;2.85;;
11598;SDS011;5855;48.840;9.188;2023-02-01T08:07:49;7.32;;;2.92;;
11598;SDS011;5855;48.840;9.188;2023-02-01T08:10:16;4.75;;;2.90;;
11598;SDS011;5855;48.840;9.188;2023-02-01T08:12:43;8.43;;;3.05;;
11598;SDS011;5855;48.840;9.188;2023-02-01T08:15:13;5.13;;;2.63;;
11598;SDS011;5855;48.840;9.188;2023-02-01T08:17:40;7.38;;;3.00;;
11598;SDS011;5855;48.840;9.188;2023-02-01T08:20:12;6.82;;;2.83;;
11598;SDS011;5855;48.840;9.188;2023-02-01T08:22:39;6.13;;;2.63;;
11598;SDS011;5855;48.840;9.188;2023-02-01T08:25:08;5.80;;;2.60;;
11598;SDS011;5855;48.840;9.188;2023-02-01T08:27:35;8.82;;;2.65;;
11598;SDS011;5855;48.840;9.188;2023-02-01T08:30:02;5.72;;;2.40;;
11598;SDS011;5855;48.840;9.188;2023-02-01T08:32:30;6.72;;;2.72;;
11598;SDS011;5855;48.840;9.188;2023-02-01T08:34:57;5.38;;;2.28;;
11598;SDS011;5855;48.840;9.188;2023-02-01T08:37:24;4.28;;;2.53;;
11598;SDS011;5855;48.840;9.188;2023-02-01T08:39:50;7.55;;;2.63;;
11598;SDS011;5855;48.840;9.188;2023-02-01T08:42:19;6.53;;;2.67;;
11598;SDS011;5855;48.840;9.188;2023-02-01T08:45:03;8.07;;;2.63;;
11598;SDS011;5855;48.840;9.188;2023-02-01T08:47:32;5.88;;;2.90;;
11598;SDS011;5855;48.840;9.188;2023-02-01T08:50:00;7.78;;;2.70;;
11598;SDS011;5855;48.840;9.188;2023-02-01T08:52:26;10.10;;;2.90;;
11598;SDS011;5855;48.840;9.188;2023-02-01T08:54:53;7.45;;;2.65;;
11598;SDS011;5855;48.840;9.188;2023-02-01T08:57:21;6.00;;;2.42;;
11598;SDS011;5855;48.840;9.188;2023-02-01T08:59:48;10.38;;;2.42;;
11598;SDS011;5855;48.840;9.188;2023-02-01T09:02:15;5.75;;;2.45;;
11598;SDS011;5855;48.840;9.188;2023-02-01T09:04:45;5.28;;;2.72;;
11598;SDS011;5855;48.840;9.188;2023-02-01T09:07:11;8.07;;;2.70;;
11598;SDS011;5855;48.840;9.188;2023-02-01T09:09:39;7.78;;;2.50;;
11598;SDS011;5855;48.840;9.188;2023-02-01T09:12:05;8.82;;;2.33;;
11598;SDS011;5855;48.840;9.188;2023-02-01T09:14:34;4.82;;;2.40;;
11598;SDS011;5855;48.840;9.188;2023-02-01T09:17:01;6.80;;;2.45;;
11598;SDS011;5855;48.840;9.188;2023-02-01T09:19:28;6.75;;;2.78;;
11598;SDS011;5855;48.840;9.188;2023-02-01T09:21:54;6.78;;;2.38;;
11598;SDS011;5855;48.840;9.188;2023-02-01T09:24:21;4.82;;;2.50;;
11598;SDS011;5855;48.840;9.188;2023-02-01T09:26:48;9.10;;;2.95;;
11598;SDS011;5855;48.840;9.188;2023-02-01T09:29:16;9.38;;;2.88;;
11598;SDS011;5855;48.840;9.188;2023-02-01T09:31:44;7.13;;;2.35;;
11598;SDS011;5855;48.840;9.188;2023-02-01T09:34:11;6.22;;;2.42;;
11598;SDS011;5855;48.840;9.188;2023-02-01T09:36:38;12.98;;;3.78;;
11598;SDS011;5855;48.840;9.188;2023-02-01T09:39:05;9.57;;;2.80;;
11598;SDS011;5855;48.840;9.188;2023-02-01T09:41:38;4.32;;;2.00;;
11598;SDS011;5855;48.840;9.188;2023-02-01T09:44:22;8.10;;;2.72;;
11598;SDS011;5855;48.840;9.188;2023-02-01T09:47:02;6.95;;;2.47;;
11598;SDS011;5855;48.840;9.188;2023-02-01T09:49:30;8.07;;;2.90;;
11598;SDS011;5855;48.840;9.188;2023-02-01T09:52:00;10.90;;;2.88;;
11598;SDS011;5855;48.840;9.188;2023-02-01T09:54:34;7.63;;;2.67;;
11598;SDS011;5855;48.840;9.188;2023-02-01T09:57:07;11.25;;;3.05;;
11598;SDS011;5855;48.840;9.188;2023-02-01T09:59:40;10.65;;;2.78;;
11598;SDS011;5855;48.840;9.188;2023-02-01T10:02:12;9.05;;;2.95;;
11598;SDS011;5855;48.840;9.188;2023-02-01T10:04:42;8.25;;;3.00;;
11598;SDS011;5855;48.840;9.188;2023-02-01T10:07:12;10.88;;;3.00;;
11598;SDS011;5855;48.840;9.188;2023-02-01T10:09:52;10.88;;;3.13;;
11598;SDS011;5855;48.840;9.188;2023-02-01T10:12:33;11.38;;;2.58;;
11598;SDS011;5855;48.840;9.188;2023-02-01T10:15:12;7.47;;;2.50;;
11598;SDS011;5855;48.840;9.188;2023-02-01T10:17:51;9.75;;;2.75;;
11598;SDS011;5855;48.840;9.188;2023-02-01T10:20:35;10.88;;;2.83;;
11598;SDS011;5855;48.840;9.188;2023-02-01T10:23:18;10.20;;;3.20;;
11598;SDS011;5855;48.840;9.188;2023-02-01T10:25:55;12.45;;;2.72;;
11598;SDS011;5855;48.840;9.188;2023-02-01T10:28:27;8.90;;;2.50;;
11598;SDS011;5855;48.840;9.188;2023-02-01T10:30:54;7.15;;;2.60;;
11598;SDS011;5855;48.840;9.188;2023-02-01T10:33:26;10.23;;;2.95;;
11598;SDS011;5855;48.840;9.188;2023-02-01T10:35:58;8.27;;;2.78;;
11598;SDS011;5855;48.840;9.188;2023-02-01T10:38:30;10.63;;;2.75;;
11598;SDS011;5855;48.840;9.188;2023-02-01T10:41:00;9.48;;;2.53;;
11598;SDS011;5855;48.840;9.188;2023-02-01T10:43:30;8.73;;;2.95;;
11598;SDS011;5855;48.840;9.188;2023-02-01T10:45:58;11.30;;;2.92;;
11598;SDS011;5855;48.840;9.188;2023-02-01T10:48:27;7.72;;;2.72;;
11598;SDS011;5855;48.840;9.188;2023-02-01T10:50:57;10.93;;;2.70;;
11598;SDS011;5855;48.840;9.188;2023-02-01T10:53:28;6.60;;;2.60;;
11598;SDS011;5855;48.840;9.188;2023-02-01T10:56:05;10.15;;;2.65;;
11598;SDS011;5855;48.840;9.188;2023-02-01T10:58:33;10.45;;;3.28;;
11598;SDS011;5855;48.840;9.188;2023-02-01T11:01:05;9.50;;;2.90;;
11598;SDS011;5855;48.840;9.188;2023-02-01T11:03:36;9.05;;;2.83;;
11598;SDS011;5855;48.840;9.188;2023-02-01T11:06:13;7.18;;;2.90;;
11598;SDS011;5855;48.840;9.188;2023-02-01T11:08:45;10.88;;;3.00;;
11598;SDS011;5855;48.840;9.188;2023-02-01T11:11:14;9.32;;;2.80;;
11598;SDS011;5855;48.840;9.188;2023-02-01T11:13:41;15.80;;;3.13;;
11598;SDS011;5855;48.840;9.188;2023-02-01T11:16:10;9.45;;;2.35;;
11598;SDS011;5855;48.840;9.188;2023-02-01T11:18:41;10.18;;;2.70;;
11598;SDS011;5855;48.840;9.188;2023-02-01T11:21:08;11.95;;;3.17;;
11598;SDS011;5855;48.840;9.188;2023-02-01T11:23:39;7.38;;;2.80;;
11598;SDS011;5855;48.840;9.188;2023-02-01T11:26:10;7.10;;;2.53;;
11598;SDS011;5855;48.840;9.188;2023-02-01T11:28:40;10.70;;;2.67;;
11598;SDS011;5855;48.840;9.188;2023-02-01T11:31:12;8.52;;;2.65;;
11598;SDS011;5855;48.840;9.188;2023-02-01T11:33:53;11.10;;;2.60;;
11598;SDS011;5855;48.840;9.188;2023-02-01T11:36:26;9.48;;;2.65;;
11598;SDS011;5855;48.840;9.188;2023-02-01T11:39:07;6.90;;;2.40;;
11598;SDS011;5855;48.840;9.188;2023-02-01T11:41:40;8.20;;;2.60;;
11598;SDS011;5855;48.840;9.188;2023-02-01T11:47:02;5.70;;;2.20;;
11598;SDS011;5855;48.840;9.188;2023-02-01T11:49:46;9.52;;;2.60;;
11598;SDS011;5855;48.840;9.188;2023-02-01T11:52:15;8.55;;;2.47;;
11598;SDS011;5855;48.840;9.188;2023-02-01T11:54:54;10.70;;;2.90;;
11598;SDS011;5855;48.840;9.188;2023-02-01T11:57:34;12.20;;;2.25;;
11598;SDS011;5855;48.840;9.188;2023-02-01T12:00:17;9.93;;;2.28;;
11598;SDS011;5855;48.840;9.188;2023-02-01T12:02:57;7.07;;;2.38;;
11598;SDS011;5855;48.840;9.188;2023-02-01T12:05:52;8.43;;;2.20;;
11598;SDS011;5855;48.840;9.188;2023-02-01T12:08:35;7.78;;;2.20;;
11598;SDS011;5855;48.840;9.188;2023-02-01T12:11:21;7.93;;;2.28;;
11598;SDS011;5855;48.840;9.188;2023-02-01T12:14:06;7.03;;;2.30;;
11598;SDS011;5855;48.840;9.188;2023-02-01T12:16:45;7.45;;;2.55;;
11598;SDS011;5855;48.840;9.188;2023-02-01T12:19:25;8.18;;;2.25;;
11598;SDS011;5855;48.840;9.188;2023-02-01T12:22:06;10.65;;;2.47;;
11598;SDS011;5855;48.840;9.188;2023-02-01T12:24:58;7.25;;;2.00;;
11598;SDS011;5855;48.840;9.188;2023-02-01T12:27:42;8.48;;;2.03;;
11598;SDS011;5855;48.840;9.188;2023-02-01T12:30:36;6.85;;;2.10;;
11598;SDS011;5855;48.840;9.188;2023-02-01T12:33:36;5.60;;;2.00;;
11598;SDS011;5855;48.840;9.188;2023-02-01T12:36:12;8.18;;;2.28;;
11598;SDS011;5855;48.840;9.188;2023-02-01T12:38:46;9.48;;;2.13;;
11598;SDS011;5855;48.840;9.188;2023-02-01T12:41:22;8.80;;;2.70;;
11598;SDS011;5855;48.840;9.188;2023-02-01T12:44:08;9.30;;;2.38;;
11598;SDS011;5855;48.840;9.188;2023-02-01T12:46:40;8.98;;;2.58;;
11598;SDS011;5855;48.840;9.188;2023-02-01T12:49:11;7.32;;;2.42;;
11598;SDS011;5855;48.840;9.188;2023-02-01T12:51:41;10.98;;;2.40;;
11598;SDS011;5855;48.840;9.188;2023-02-01T12:54:13;6.85;;;2.05;;
11598;SDS011;5855;48.840;9.188;2023-02-01T12:56:48;11.55;;;2.40;;
11598;SDS011;5855;48.840;9.188;2023-02-01T12:59:21;8.63;;;2.95;;
11598;SDS011;5855;48.840;9.188;2023-02-01T13:01:54;7.68;;;2.30;;
11598;SDS011;5855;48.840;9.188;2023-02-01T13:04:25;10.98;;;2.30;;
11598;SDS011;5855;48.840;9.188;2023-02-01T13:06:57;8.30;;;2.25;;
11598;SDS011;5855;48.840;9.188;2023-02-01T13:09:34;10.30;;;2.45;;
11598;SDS011;5855;48.840;9.188;2023-02-01T13:12:09;10.50;;;2.97;;
11598;SDS011;5855;48.840;9.188;2023-02-01T13:14:40;9.73;;;3.33;;
11598;SDS011;5855;48.840;9.188;2023-02-01T13:17:12;10.65;;;2.72;;
11598;SDS011;5855;48.840;9.188;2023-02-01T13:19:42;4.78;;;2.25;;
11598;SDS011;5855;48.840;9.188;2023-02-01T13:22:12;13.52;;;3.05;;
11598;SDS011;5855;48.840;9.188;2023-02-01T13:24:44;9.02;;;2.63;;
11598;SDS011;5855;48.840;9.188;2023-02-01T13:27:14;6.90;;;2.30;;
11598;SDS011;5855;48.840;9.188;2023-02-01T13:29:45;9.75;;;2.50;;
11598;SDS011;5855;48.840;9.188;2023-02-01T13:32:21;8.52;;;2.50;;
11598;SDS011;5855;48.840;9.188;2023-02-01T13:35:37;8.18;;;2.85;;
11598;SDS011;5855;48.840;9.188;2023-02-01T13:38:25;8.45;;;2.72;;
11598;SDS011;5855;48.840;9.188;2023-02-01T13:41:10;12.18;;;3.05;;
11598;SDS011;5855;48.840;9.188;2023-02-01T13:43:49;8.32;;;2.33;;
11598;SDS011;5855;48.840;9.188;2023-02-01T13:46:18;8.85;;;2.20;;
11598;SDS011;5855;48.840;9.188;2023-02-01T13:48:47;5.07;;;2.00;;
11598;SDS011;5855;48.840;9.188;2023-02-01T13:51:16;9.60;;;2.45;;
11598;SDS011;5855;48.840;9.188;2023-02-01T13:53:58;10.60;;;2.85;;
11598;SDS011;5855;48.840;9.188;2023-02-01T13:56:26;9.73;;;2.30;;
11598;SDS011;5855;48.840;9.188;2023-02-01T13:58:54;7.55;;;2.13;;
11598;SDS011;5855;48.840;9.188;2023-02-01T14:07:17;4.80;;;1.95;;
11598;SDS011;5855;48.840;9.188;2023-02-01T14:09:45;6.35;;;2.33;;
11598;SDS011;5855;48.840;9.188;2023-02-01T14:15:19;6.78;;;2.40;;
11598;SDS011;5855;48.840;9.188;2023-02-01T14:17:49;8.60;;;2.70;;
11598;SDS011;5855;48.840;9.188;2023-02-01T14:23:24;9.45;;;2.38;;
11598;SDS011;5855;48.840;9.188;2023-02-01T14:28:51;9.13;;;2.47;;
11598;SDS011;5855;48.840;9.188;2023-02-01T14:31:31;6.28;;;2.22;;
11598;SDS011;5855;48.840;9.188;2023-02-01T14:34:15;10.32;;;2.67;;
11598;SDS011;5855;48.840;9.188;2023-02-01T14:36:47;8.27;;;2.40;;
11598;SDS011;5855;48.840;9.188;2023-02-01T14:39:18;9.90;;;2.67;;
11598;SDS011;5855;48.840;9.188;2023-02-01T14:41:52;10.82;;;2.88;;
11598;SDS011;5855;48.840;9.188;2023-02-01T14:44:25;8.10;;;2.80;;
11598;SDS011;5855;48.840;9.188;2023-02-01T14:53:11;11.20;;;2.60;;
11598;SDS011;5855;48.840;9.188;2023-02-01T14:55:46;8.15;;;2.50;;
11598;SDS011;5855;48.840;9.188;2023-02-01T14:58:16;9.70;;;2.55;;
11598;SDS011;5855;48.840;9.188;2023-02-01T15:00:52;9.00;;;2.05;;
11598;SDS011;5855;48.840;9.188;2023-02-01T15:03:25;8.80;;;2.63;;
11598;SDS011;5855;48.840;9.188;2023-02-01T15:06:01;9.68;;;2.72;;
11598;SDS011;5855;48.840;9.188;2023-02-01T15:08:31;10.00;;;2.55;;
11598;SDS011;5855;48.840;9.188;2023-02-01T15:11:05;8.05;;;2.55;;
11598;SDS011;5855;48.840;9.188;2023-02-01T15:13:37;12.27;;;2.55;;
11598;SDS011;5855;48.840;9.188;2023-02-01T15:16:07;8.77;;;2.60;;
11598;SDS011;5855;48.840;9.188;2023-02-01T15:18:37;6.25;;;2.47;;
11598;SDS011;5855;48.840;9.188;2023-02-01T15:21:05;7.38;;;2.80;;
11598;SDS011;5855;48.840;9.188;2023-02-01T15:23:33;6.50;;;2.33;;
11598;SDS011;5855;48.840;9.188;2023-02-01T15:25:59;9.25;;;2.63;;
11598;SDS011;5855;48.840;9.188;2023-02-01T15:28:26;7.47;;;2.60;;
11598;SDS011;5855;48.840;9.188;2023-02-01T15:30:54;8.73;;;2.90;;
11598;SDS011;5855;48.840;9.188;2023-02-01T15:33:25;8.82;;;2.70;;
11598;SDS011;5855;48.840;9.188;2023-02-01T15:35:53;9.30;;;2.60;;
11598;SDS011;5855;48.840;9.188;2023-02-01T15:38:32;8.95;;;2.67;;
11598;SDS011;5855;48.840;9.188;2023-02-01T15:41:05;7.88;;;2.80;;
11598;SDS011;5855;48.840;9.188;2023-02-01T15:43:35;9.48;;;2.60;;
11598;SDS011;5855;48.840;9.188;2023-02-01T15:46:07;9.20;;;2.53;;
11598;SDS011;5855;48.840;9.188;2023-02-01T15:48:40;7.55;;;2.35;;
11598;SDS011;5855;48.840;9.188;2023-02-01T15:51:14;7.72;;;2.28;;
11598;SDS011;5855;48.840;9.188;2023-02-01T15:53:44;7.78;;;2.40;;